»·PEaware :: N811KC KLAS-KTOA

N811KC :: KLAS-KTOA

FLIGHT INFORMATION

Flight Status: Arrived
Operator: Privately registered:
United States
More flights under this callsign
Pilot: John L. (26044)
Aircraft: BEECH AIRCRAFT A90-E90 KING AIR
(BE9L)
More flights by this aircraft type
Origin: KLAS McCarran Intl
United States
Destination: KTOA Zamperini
United States
More flights between these airports :: More routes between these airports
Route: +GFS HEC KAYOH7
File this flight plan on PilotEdge
Remarks:
Altitude:
(Current/Filed)
12,000ft
Speed:
(Current/Filed)
200kts
Departed: 22-Dec-19 09:58 AM
Arrived: 22-Dec-19 12:02 PM
Distance/Time
Traveled:
208nm/2:04
Distance/Time
To Go:
Arrived

Flight Plot

Page will automatically refresh every two minutes.

Flight plan parsing failed; only flown route is shown


Map Options




Map Legend


Flown Route
Filed Route
Departure Airport
Arrival Airport
Navaid (VOR, NDB)
Fix

Horizontal Profiles

Position Reports

Time Latitude Longitude Heading Altitude Ground
Speed
22-Dec-19 09:29 36.082039 -115.171630 0 2168ft 0kts
22-Dec-19 09:30 36.082039 -115.171630 0 2168ft 0kts
22-Dec-19 09:31 36.082039 -115.171630 0 2168ft 0kts
22-Dec-19 09:32 36.082039 -115.171630 0 2168ft 0kts
22-Dec-19 09:33 36.082039 -115.171630 0 2168ft 0kts
22-Dec-19 09:34 36.082039 -115.171630 0 2168ft 0kts
22-Dec-19 09:35 36.082039 -115.171630 0 2168ft 0kts
22-Dec-19 09:36 36.082039 -115.171630 0 2168ft 0kts
22-Dec-19 09:37 36.082039 -115.171630 0 2168ft 0kts
22-Dec-19 09:38 36.082039 -115.171630 0 2168ft 0kts
22-Dec-19 09:39 36.082039 -115.171630 0 2168ft 0kts
22-Dec-19 09:40 36.082039 -115.171630 0 2168ft 0kts
22-Dec-19 09:41 36.082039 -115.171630 0 2168ft 0kts
22-Dec-19 09:42 36.082039 -115.171630 0 2168ft 0kts
22-Dec-19 09:43 36.082039 -115.171630 0 2168ft 0kts
22-Dec-19 09:44 36.082039 -115.171630 0 2168ft 0kts
22-Dec-19 09:45 36.082039 -115.171630 0 2168ft 0kts
22-Dec-19 09:46 36.082039 -115.171630 0 2168ft 0kts
22-Dec-19 09:47 36.082039 -115.171630 0 2168ft 0kts
22-Dec-19 09:48 36.082039 -115.171630 0 2168ft 0kts
22-Dec-19 09:49 36.082039 -115.171630 0 2168ft 0kts
22-Dec-19 09:50 36.082086 -115.171568 82 2168ft 2kts
22-Dec-19 09:51 36.081506 -115.169536 81 2163ft 17kts
22-Dec-19 09:52 36.085091 -115.167231 25 2150ft 25kts
22-Dec-19 09:53 36.089770 -115.164488 24 2129ft 26kts
22-Dec-19 09:54 36.094813 -115.161594 25 2109ft 27kts
22-Dec-19 09:55 36.099666 -115.158328 69 2089ft 22kts
22-Dec-19 09:56 36.099821 -115.157378 103 2086ft 7kts
22-Dec-19 09:57 36.089253 -115.162609 204 2627ft 109kts
22-Dec-19 09:58 36.064955 -115.169683 184 4143ft 119kts
22-Dec-19 09:59 36.038896 -115.174062 186 5028ft 161kts
22-Dec-19 10:00 36.003089 -115.180300 186 5023ft 204kts
22-Dec-19 10:01 35.962016 -115.187549 186 5267ft 206kts
22-Dec-19 10:02 35.924344 -115.194230 186 6140ft 185kts
22-Dec-19 10:03 35.892542 -115.200007 186 7328ft 161kts
22-Dec-19 10:04 35.863033 -115.205276 179 8436ft 150kts
22-Dec-19 10:05 35.834250 -115.204525 177 9465ft 145kts
22-Dec-19 10:06 35.805906 -115.203429 178 10519ft 147kts
22-Dec-19 10:07 35.781159 -115.202405 179 11453ft 144kts
22-Dec-19 10:08 35.752744 -115.201293 180 12024ft 163kts
22-Dec-19 10:09 35.719109 -115.199955 179 12027ft 193kts
22-Dec-19 10:10 35.681996 -115.198450 179 12022ft 205kts
22-Dec-19 10:11 35.643647 -115.196886 179 12020ft 209kts
22-Dec-19 10:12 35.605832 -115.195356 179 12017ft 202kts
22-Dec-19 10:13 35.569115 -115.193883 179 12019ft 200kts
22-Dec-19 10:14 35.531789 -115.192387 179 12018ft 202kts
22-Dec-19 10:15 35.495202 -115.190922 179 12018ft 203kts
22-Dec-19 10:16 35.459761 -115.189503 179 12017ft 202kts
22-Dec-19 10:17 35.424101 -115.188077 179 12016ft 201kts
22-Dec-19 10:18 35.389824 -115.186699 179 12013ft 191kts
22-Dec-19 10:19 35.355243 -115.185329 179 12017ft 200kts
22-Dec-19 10:20 35.319900 -115.183920 179 12016ft 201kts
22-Dec-19 10:21 35.285392 -115.182546 179 11993ft 202kts
22-Dec-19 10:22 35.260391 -115.181551 179 11988ft 202kts
22-Dec-19 10:23 35.238751 -115.180689 179 11987ft 202kts
22-Dec-19 10:24 35.216372 -115.179798 179 11987ft 202kts
22-Dec-19 10:25 35.197621 -115.179120 182 11984ft 202kts
22-Dec-19 10:26 35.175506 -115.179346 179 11989ft 201kts
22-Dec-19 10:27 35.144534 -115.177346 181 11984ft 202kts
22-Dec-19 10:28 35.123482 -115.210508 242 11990ft 220kts
22-Dec-19 10:29 35.110890 -115.256960 243 11986ft 222kts
22-Dec-19 10:30 35.098557 -115.304789 243 11986ft 222kts
22-Dec-19 10:31 35.086683 -115.351252 243 11986ft 222kts
22-Dec-19 10:32 35.074766 -115.397899 243 11985ft 222kts
22-Dec-19 10:33 35.062682 -115.445133 243 11985ft 222kts
22-Dec-19 10:34 35.050891 -115.491145 243 11985ft 222kts
22-Dec-19 10:35 35.038570 -115.539129 244 11987ft 222kts
22-Dec-19 10:36 35.026132 -115.587492 244 11985ft 222kts
22-Dec-19 10:37 35.013692 -115.635773 244 11984ft 221kts
22-Dec-19 10:38 35.001991 -115.681089 243 11986ft 221kts
22-Dec-19 10:39 34.989912 -115.727807 243 11977ft 221kts
22-Dec-19 10:40 34.977529 -115.775606 243 11969ft 221kts
22-Dec-19 10:41 34.965288 -115.822770 243 11963ft 221kts
22-Dec-19 10:42 34.953182 -115.869337 243 11959ft 221kts
22-Dec-19 10:43 34.941364 -115.914717 243 11957ft 221kts
22-Dec-19 10:44 34.929610 -115.959778 243 11961ft 221kts
22-Dec-19 10:45 34.918389 -116.002720 243 11966ft 220kts
22-Dec-19 10:46 34.905971 -116.050162 243 11971ft 220kts
22-Dec-19 10:48 34.894154 -116.095223 244 11986ft 220kts
22-Dec-19 10:49 34.881727 -116.142529 244 11992ft 221kts
22-Dec-19 10:50 34.869586 -116.188705 244 12076ft 218kts
22-Dec-19 10:51 34.857429 -116.234800 244 12068ft 220kts
22-Dec-19 10:52 34.845363 -116.280499 244 12056ft 221kts
22-Dec-19 10:53 34.833112 -116.326824 244 12043ft 221kts
22-Dec-19 10:54 34.820833 -116.373170 244 12030ft 221kts
22-Dec-19 10:55 34.808629 -116.419152 244 12020ft 221kts
22-Dec-19 10:56 34.794014 -116.465787 220 12004ft 209kts
22-Dec-19 10:57 34.768205 -116.498194 220 12020ft 209kts
22-Dec-19 10:58 34.742362 -116.530193 220 12019ft 209kts
22-Dec-19 10:59 34.716734 -116.561776 220 12019ft 209kts
22-Dec-19 11:00 34.690923 -116.593523 220 12021ft 209kts
22-Dec-19 11:01 34.665176 -116.625155 220 12020ft 209kts
22-Dec-19 11:02 34.639757 -116.656346 220 12020ft 209kts
22-Dec-19 11:03 34.614711 -116.687060 220 11985ft 210kts
22-Dec-19 11:04 34.589763 -116.717631 220 11974ft 210kts
22-Dec-19 11:05 34.567007 -116.745483 220 11974ft 211kts
22-Dec-19 11:06 34.542262 -116.775746 220 11973ft 211kts
22-Dec-19 11:07 34.517201 -116.806369 220 11973ft 211kts
22-Dec-19 11:08 34.492851 -116.836096 220 11972ft 212kts
22-Dec-19 11:09 34.468992 -116.865203 220 11954ft 212kts
22-Dec-19 11:09 34.449793 -116.888597 220 11954ft 212kts
22-Dec-19 11:10 34.427398 -116.915864 220 11956ft 212kts
22-Dec-19 11:12 34.402689 -116.945927 220 11961ft 212kts
22-Dec-19 11:12 34.386104 -116.966093 220 11966ft 212kts
22-Dec-19 11:13 34.366288 -116.990172 220 11972ft 213kts
22-Dec-19 11:14 34.343007 -117.018440 220 11978ft 213kts
22-Dec-19 11:15 34.322160 -117.043733 220 11982ft 213kts
22-Dec-19 11:16 34.301087 -117.069280 220 11985ft 214kts
22-Dec-19 11:17 34.275730 -117.099996 220 11987ft 214kts
22-Dec-19 11:18 34.243066 -117.115733 188 12032ft 209kts
22-Dec-19 11:19 34.204130 -117.121959 188 12034ft 211kts
22-Dec-19 11:20 34.164525 -117.127933 188 12033ft 211kts
22-Dec-19 11:21 34.125094 -117.133800 188 12033ft 211kts
22-Dec-19 11:22 34.083939 -117.139903 188 12032ft 211kts
22-Dec-19 11:23 34.043172 -117.145938 188 12030ft 211kts
22-Dec-19 11:24 34.000840 -117.152198 188 12027ft 211kts
22-Dec-19 11:25 33.960075 -117.158221 188 12024ft 211kts
22-Dec-19 11:26 33.921270 -117.163949 188 12021ft 211kts
22-Dec-19 11:27 33.883199 -117.169562 188 12028ft 212kts
22-Dec-19 11:28 33.846776 -117.174928 188 12029ft 212kts
22-Dec-19 11:29 33.813806 -117.179782 188 12029ft 213kts
22-Dec-19 11:30 33.781928 -117.191563 229 12023ft 218kts
22-Dec-19 11:31 33.777395 -117.234707 261 11963ft 232kts
22-Dec-19 11:32 33.777472 -117.282106 263 11356ft 233kts
22-Dec-19 11:33 33.777813 -117.325769 265 10087ft 210kts
22-Dec-19 11:34 33.778174 -117.366632 268 8800ft 197kts
22-Dec-19 11:35 33.778608 -117.407687 265 8026ft 195kts
22-Dec-19 11:36 33.779124 -117.451556 266 8048ft 218kts
22-Dec-19 11:37 33.779506 -117.496504 266 8043ft 234kts
22-Dec-19 11:38 33.779886 -117.539031 266 8041ft 239kts
22-Dec-19 11:39 33.780277 -117.584696 266 8040ft 241kts
22-Dec-19 11:40 33.780637 -117.630532 266 8038ft 243kts
22-Dec-19 11:41 33.779685 -117.679482 245 7862ft 242kts
22-Dec-19 11:42 33.760325 -117.729873 242 7363ft 250kts
22-Dec-19 11:43 33.740653 -117.778996 242 6455ft 202kts
22-Dec-19 11:44 33.719845 -117.819630 241 5277ft 181kts
22-Dec-19 11:45 33.698944 -117.860627 241 4130ft 216kts
22-Dec-19 11:46 33.682437 -117.911819 256 4013ft 207kts
22-Dec-19 11:47 33.671059 -117.964625 257 4018ft 211kts
22-Dec-19 11:48 33.659781 -118.017118 257 4018ft 212kts
22-Dec-19 11:49 33.648311 -118.070822 260 4015ft 212kts
22-Dec-19 11:50 33.671465 -118.114356 311 4018ft 208kts
22-Dec-19 11:51 33.697914 -118.153182 311 4020ft 222kts
22-Dec-19 11:52 33.723476 -118.190802 311 3631ft 196kts
22-Dec-19 11:53 33.746211 -118.224199 311 3048ft 177kts
22-Dec-19 11:54 33.767413 -118.254971 310 2797ft 152kts
22-Dec-19 11:55 33.786890 -118.285284 307 2552ft 140kts
22-Dec-19 11:56 33.803654 -118.314121 302 2147ft 129kts
22-Dec-19 11:57 33.816007 -118.343420 301 1353ft 125kts
22-Dec-19 11:58 33.828777 -118.369102 292 967ft 114kts
22-Dec-19 11:59 33.818818 -118.362782 109 874ft 107kts
22-Dec-19 12:00 33.805237 -118.341336 124 93ft 61kts
22-Dec-19 12:01 33.800678 -118.335918 149 101ft 0kts
22-Dec-19 12:02 33.800551 -118.335827 148 101ft 0kts
22-Dec-19 12:03 33.800436 -118.335743 149 101ft 0kts
22-Dec-19 12:04 33.799158 -118.335622 181 103ft 8kts
22-Dec-19 12:05 33.801923 -118.340418 306 101ft 26kts
22-Dec-19 12:06 33.802307 -118.343317 25 101ft 0kts
22-Dec-19 12:07 33.802308 -118.343317 25 101ft 0kts
22-Dec-19 12:08 33.802308 -118.343317 25 101ft 0kts
22-Dec-19 12:09 33.802308 -118.343317 25 101ft 0kts
22-Dec-19 12:10 33.802308 -118.343317 25 101ft 0kts
22-Dec-19 12:11 33.802308 -118.343317 25 101ft 0kts
22-Dec-19 12:12 33.802308 -118.343317 25 101ft 0kts
22-Dec-19 12:13 33.802308 -118.343317 25 101ft 0kts
22-Dec-19 12:14 33.802308 -118.343317 25 101ft 0kts
22-Dec-19 12:15 33.802308 -118.343317 25 101ft 0kts

Navigation Log

Ident Type
Flight plan parsing failed, navigation log unavailable